createdAt,value
2022-09-17T00:01:39.538Z,100969.47
2022-09-17T00:04:07.661Z,100965.94
2022-09-17T00:06:37.450Z,100972.06
2022-09-17T00:09:06.591Z,100975.56
2022-09-17T00:11:37.826Z,100983.41
2022-09-17T00:14:10.198Z,100983.41
2022-09-17T00:16:40.514Z,100991.31
2022-09-17T00:19:14.438Z,101000.03
2022-09-17T00:21:43.197Z,100993.03
2022-09-17T00:24:14.202Z,100991.28
2022-09-17T00:26:42.869Z,100988.66
2022-09-17T00:29:13.310Z,100986.06
2022-09-17T00:31:41.791Z,100991.31
2022-09-17T00:34:10.269Z,100989.53
2022-09-17T00:36:40.488Z,101010.56
2022-09-17T00:39:12.440Z,101005.31
2022-09-17T00:41:40.793Z,100999.19
2022-09-17T00:44:53.240Z,101001.84
2022-09-17T00:47:31.094Z,101010.63
2022-09-17T00:50:04.368Z,101007.97
2022-09-17T00:52:37.318Z,101002.72
2022-09-17T00:55:14.041Z,100999.22
2022-09-17T00:57:43.328Z,100987.84
2022-09-17T01:00:15.006Z,100988.69
2022-09-17T01:02:45.018Z,100976.44
2022-09-17T01:05:14.543Z,100976.47
2022-09-17T01:08:03.432Z,101002.72
2022-09-17T01:10:49.103Z,101003.63
2022-09-17T01:13:28.374Z,100992.22
2022-09-17T01:16:08.828Z,100992.19
2022-09-17T01:18:54.183Z,100982.59
2022-09-17T01:21:50.048Z,100992.22
2022-09-17T01:24:48.357Z,100990.47
2022-09-17T01:28:18.270Z,100991.34
2022-09-17T01:31:19.696Z,100992.22
2022-09-17T01:34:03.452Z,100998.34
2022-09-17T01:36:54.639Z,101008.84
2022-09-17T01:39:34.527Z,101008.84
2022-09-17T01:42:15.324Z,101007.06
2022-09-17T01:44:53.260Z,101009.69
2022-09-17T01:47:27.397Z,101007.94
2022-09-17T01:50:01.630Z,101007.94
2022-09-17T01:52:33.038Z,101011.41
2022-09-17T01:55:07.315Z,101013.16
2022-09-17T01:57:41.903Z,101009.66
2022-09-17T02:00:13.749Z,101009.66
2022-09-17T02:02:47.698Z,101018.38
2022-09-17T02:05:20.524Z,101024.53
2022-09-17T02:07:55.041Z,101022.81
2022-09-17T02:10:27.473Z,101025.44
2022-09-17T02:13:02.041Z,101018.44
2022-09-17T02:15:37.713Z,101015.81
2022-09-17T02:18:15.041Z,101009.69
2022-09-17T02:20:48.644Z,101011.44
2022-09-17T02:23:22.603Z,101019.31
2022-09-17T02:26:00.746Z,101020.16
2022-09-17T02:28:42.471Z,101013.16
2022-09-17T02:31:11.857Z,101014.03
2022-09-17T02:33:43.667Z,101013.13
2022-09-17T02:36:11.763Z,101010.50
2022-09-17T02:38:43.132Z,101012.19
2022-09-17T02:41:17.877Z,101009.56
2022-09-17T02:44:01.127Z,101006.94
2022-09-17T02:46:46.738Z,101009.53
2022-09-17T02:49:36.921Z,101024.41
2022-09-17T02:52:15.792Z,101025.28
2022-09-17T02:54:54.319Z,101013.94
2022-09-17T02:57:31.132Z,101020.91
2022-09-17T03:00:07.479Z,101023.50
2022-09-17T03:02:41.380Z,101010.38
2022-09-17T03:05:12.258Z,101008.59
2022-09-17T03:07:40.440Z,101018.16
2022-09-17T03:10:10.145Z,101012.03
2022-09-17T03:12:38.550Z,101025.13
2022-09-17T03:15:08.062Z,101024.28
2022-09-17T03:17:36.562Z,101025.19
2022-09-17T03:20:06.211Z,101018.19
2022-09-17T03:22:35.725Z,101019.88
2022-09-17T03:25:03.911Z,101009.31
2022-09-17T03:27:32.005Z,101011.94
2022-09-17T03:30:00.244Z,101014.50
2022-09-17T03:32:28.297Z,101010.16
2022-09-17T03:34:56.564Z,101014.50
2022-09-17T03:37:24.652Z,101010.16
2022-09-17T03:39:54.127Z,101018.88
2022-09-17T03:42:22.185Z,101017.97
2022-09-17T03:44:50.686Z,101015.34
2022-09-17T03:47:18.821Z,101017.97
2022-09-17T03:49:46.902Z,101029.34
2022-09-17T03:52:15.181Z,101026.69
2022-09-17T03:54:43.362Z,101028.44
2022-09-17T03:57:12.869Z,101030.16
2022-09-17T03:59:40.914Z,101029.28
2022-09-17T04:02:09.059Z,101039.75
2022-09-17T04:04:37.782Z,101045.97
2022-09-17T04:07:06.182Z,101059.09
2022-09-17T04:09:35.363Z,101039.88
2022-09-17T04:12:04.233Z,101029.34
2022-09-17T04:14:33.650Z,101024.00
2022-09-17T04:17:01.724Z,101027.38
2022-09-17T04:19:29.832Z,101022.97
2022-09-17T04:21:57.962Z,101029.00
2022-09-17T04:24:26.062Z,101023.75
2022-09-17T04:26:54.115Z,101024.56
2022-09-17T04:29:22.230Z,101030.63
2022-09-17T04:31:51.652Z,101034.97
2022-09-17T04:34:19.827Z,101036.63
2022-09-17T04:36:47.827Z,101046.19
2022-09-17T04:39:17.285Z,101053.13
2022-09-17T04:41:45.790Z,101056.63
2022-09-17T04:44:13.928Z,101064.56
2022-09-17T04:46:42.018Z,101071.63
2022-09-17T04:49:12.471Z,101076.94
2022-09-17T04:51:40.515Z,101055.16
2022-09-17T04:54:08.962Z,101059.53
2022-09-17T04:56:36.981Z,101060.38
2022-09-17T04:59:05.193Z,101055.16
2022-09-17T05:01:33.262Z,101059.56
2022-09-17T05:04:07.838Z,101065.72
2022-09-17T05:06:37.978Z,101064.88
2022-09-17T05:09:06.037Z,101055.22
2022-09-17T05:11:34.068Z,101046.47
2022-09-17T05:14:02.288Z,101052.53
2022-09-17T05:16:30.659Z,101057.72
2022-09-17T05:18:58.899Z,101061.19
2022-09-17T05:21:27.151Z,101046.28
2022-09-17T05:23:56.879Z,101057.63
2022-09-17T05:26:25.409Z,101055.88
2022-09-17T05:28:53.693Z,101058.47
2022-09-17T05:31:21.792Z,101059.34
2022-09-17T05:33:49.973Z,101064.53
2022-09-17T05:36:18.153Z,101061.06
2022-09-17T05:38:46.284Z,101071.53
2022-09-17T05:41:15.863Z,101073.25
2022-09-17T05:43:44.786Z,101065.38
2022-09-17T05:46:12.918Z,101068.91
2022-09-17T05:48:40.999Z,101073.31
2022-09-17T05:51:09.100Z,101072.50
2022-09-17T05:53:37.854Z,101066.56
2022-09-17T05:56:06.546Z,101062.31
2022-09-17T05:58:35.958Z,101072.91
2022-09-17T06:01:04.349Z,101077.38
2022-09-17T06:03:32.447Z,101073.88
2022-09-17T06:06:01.686Z,101060.81
2022-09-17T06:08:30.639Z,101064.34
2022-09-17T06:11:02.261Z,101077.56
2022-09-17T06:13:30.899Z,101084.59
2022-09-17T06:16:00.751Z,101088.19
2022-09-17T06:18:29.533Z,101097.00
2022-09-17T06:20:59.530Z,101099.72
2022-09-17T06:23:29.156Z,101105.03
2022-09-17T06:25:59.825Z,101103.34
2022-09-17T06:28:29.021Z,101122.66
2022-09-17T06:31:03.454Z,101125.25
2022-09-17T06:33:32.910Z,101096.31
2022-09-17T06:36:03.390Z,101104.09
2022-09-17T06:38:34.465Z,101104.03
2022-09-17T06:41:03.007Z,101096.97
2022-09-17T06:43:31.642Z,101108.28
2022-09-17T06:46:03.573Z,101112.63
2022-09-17T06:48:35.296Z,101103.91
2022-09-17T06:51:05.987Z,101108.34
2022-09-17T06:53:34.513Z,101097.91
2022-09-17T06:56:06.484Z,101105.81
2022-09-17T06:58:37.044Z,101099.69
2022-09-17T07:01:07.034Z,101101.41
2022-09-17T07:03:37.347Z,101091.78
2022-09-17T07:06:06.313Z,101105.81
2022-09-17T07:08:35.424Z,101111.91
2022-09-17T07:11:03.635Z,101104.00
2022-09-17T07:13:31.733Z,101094.41
2022-09-17T07:16:01.474Z,101101.38
2022-09-17T07:18:31.189Z,101103.13
2022-09-17T07:21:01.247Z,101097.88
2022-09-17T07:23:31.225Z,101102.25
2022-09-17T07:26:03.169Z,101094.47
2022-09-17T07:28:31.384Z,101094.53
2022-09-17T07:30:59.567Z,101102.50
2022-09-17T07:33:30.015Z,101103.41
2022-09-17T07:36:00.056Z,101114.78
2022-09-17T07:38:29.643Z,101107.78
2022-09-17T07:41:00.074Z,101092.88
2022-09-17T07:43:29.707Z,101095.44
2022-09-17T07:46:00.822Z,101101.53
2022-09-17T07:48:31.287Z,101098.03
2022-09-17T07:50:59.891Z,101099.78
2022-09-17T07:53:28.539Z,101098.94
2022-09-17T07:55:58.639Z,101107.69
2022-09-17T07:58:31.755Z,101117.38
2022-09-17T08:01:03.343Z,101124.41
2022-09-17T08:03:33.396Z,101113.91
2022-09-17T08:06:06.007Z,101118.25
2022-09-17T08:08:35.864Z,101124.38
2022-09-17T08:11:04.437Z,101116.47
2022-09-17T08:13:32.775Z,101121.75
2022-09-17T08:16:02.939Z,101125.28
2022-09-17T08:18:32.994Z,101123.56
2022-09-17T08:21:03.186Z,101123.53
2022-09-17T08:23:33.219Z,101126.16
2022-09-17T08:26:02.590Z,101129.66
2022-09-17T08:28:32.641Z,101123.53
2022-09-17T08:31:03.389Z,101118.28
2022-09-17T08:33:34.694Z,101113.84
2022-09-17T08:36:03.637Z,101112.91
2022-09-17T08:38:37.927Z,101117.25
2022-09-17T08:41:25.607Z,101119.81
2022-09-17T08:44:07.408Z,101122.31
2022-09-17T08:46:48.188Z,101111.81
2022-09-17T08:49:31.445Z,101101.31
2022-09-17T08:53:02.695Z,101105.66
2022-09-17T08:55:41.379Z,101095.00
2022-09-17T08:58:39.526Z,101090.50
2022-09-17T09:01:25.579Z,101088.56
2022-09-17T09:04:18.461Z,101084.69
2022-09-17T09:06:52.858Z,101080.75
2022-09-17T09:09:26.638Z,101092.69
2022-09-17T09:12:10.512Z,101108.91
2022-09-17T09:14:50.015Z,101127.16
2022-09-17T09:17:22.668Z,101116.09
2022-09-17T09:19:52.985Z,101109.28
2022-09-17T09:22:41.759Z,101111.13
2022-09-17T09:25:23.266Z,101112.06
2022-09-17T09:28:19.292Z,101109.50
2022-09-17T09:31:10.514Z,101112.16
2022-09-17T09:33:47.583Z,101116.50
2022-09-17T09:36:21.689Z,101105.06
2022-09-17T09:38:57.644Z,101112.03
2022-09-17T09:41:33.304Z,101111.16
2022-09-17T09:44:05.718Z,101116.38
2022-09-17T09:47:05.121Z,101116.25
2022-09-17T09:49:58.507Z,101117.91
2022-09-17T09:52:45.124Z,101116.22
2022-09-17T09:55:41.081Z,101118.84
2022-09-17T09:58:21.129Z,101126.78
2022-09-17T10:00:49.550Z,101110.13
2022-09-17T10:03:22.583Z,101125.06
2022-09-17T10:05:59.453Z,101133.91
2022-09-17T10:08:29.444Z,101131.34
2022-09-17T10:11:02.598Z,101124.38
2022-09-17T10:13:35.562Z,101121.75
2022-09-17T10:16:20.315Z,101126.13
2022-09-17T10:18:49.945Z,101127.75
2022-09-17T10:21:23.554Z,101130.38
2022-09-17T10:23:52.299Z,101118.97
2022-09-17T10:26:28.697Z,101121.59
2022-09-17T10:28:58.526Z,101111.94
2022-09-17T10:31:26.805Z,101110.97
2022-09-17T10:34:00.423Z,101115.19
2022-09-17T10:36:43.469Z,101110.63
2022-09-17T10:39:38.635Z,101094.41
2022-09-17T10:42:16.271Z,101097.47
2022-09-17T10:44:54.640Z,101090.81
2022-09-17T10:47:28.970Z,101101.09
2022-09-17T10:50:01.442Z,101100.81
2022-09-17T10:52:34.293Z,101112.09
2022-09-17T10:55:24.326Z,101105.06
2022-09-17T10:58:25.599Z,101095.41
2022-09-17T11:01:09.762Z,101087.25
2022-09-17T11:04:23.474Z,101091.19
2022-09-17T11:07:23.470Z,101075.59
2022-09-17T11:10:00.686Z,101089.50
2022-09-17T11:13:03.942Z,101079.38
2022-09-17T11:15:52.840Z,101093.38
2022-09-17T11:18:37.501Z,101081.56
2022-09-17T11:21:37.732Z,101097.94
2022-09-17T11:25:10.028Z,101113.19
2022-09-17T11:28:07.658Z,101089.38
2022-09-17T11:30:50.737Z,101086.34
2022-09-17T11:33:47.454Z,101088.75
2022-09-17T11:36:22.242Z,101082.31
2022-09-17T11:38:52.493Z,101084.69
2022-09-17T11:41:24.653Z,101080.59
2022-09-17T11:44:05.434Z,101092.13
2022-09-17T11:46:41.585Z,101077.28
2022-09-17T11:49:19.547Z,101080.94
2022-09-17T11:51:52.567Z,101083.56
2022-09-17T11:54:27.286Z,101087.59
2022-09-17T11:57:04.415Z,101091.75
2022-09-17T11:59:39.800Z,101101.09
2022-09-17T12:02:22.708Z,101104.00
2022-09-17T12:05:01.661Z,101087.94
2022-09-17T12:07:42.409Z,101081.53
2022-09-17T12:10:31.097Z,101081.88
2022-09-17T12:13:08.638Z,101075.72
2022-09-17T12:15:42.084Z,101085.22
2022-09-17T12:18:32.237Z,101092.25
2022-09-17T12:21:05.688Z,101097.75
2022-09-17T12:23:43.738Z,101101.94
2022-09-17T12:26:29.281Z,101091.25
2022-09-17T12:29:07.001Z,101081.50
2022-09-17T12:31:46.462Z,101094.47
2022-09-17T12:34:37.483Z,101101.53
2022-09-17T12:37:12.598Z,101098.97
2022-09-17T12:40:20.449Z,101120.03
2022-09-17T12:43:18.623Z,101123.56
2022-09-17T12:46:29.974Z,101123.16
2022-09-17T12:49:31.251Z,101119.09
2022-09-17T12:52:02.570Z,101119.75
2022-09-17T12:54:58.434Z,101113.78
2022-09-17T12:57:39.677Z,101097.44
2022-09-17T13:00:13.237Z,101109.31
2022-09-17T13:02:47.464Z,101106.09
2022-09-17T13:05:46.400Z,101108.28
2022-09-17T13:08:53.487Z,101119.13
2022-09-17T13:12:18.095Z,101127.66
2022-09-17T13:15:25.117Z,101125.84
2022-09-17T13:18:13.335Z,101122.25
2022-09-17T13:21:02.961Z,101110.81
2022-09-17T13:23:36.526Z,101101.53
2022-09-17T13:26:06.766Z,101099.13
2022-09-17T13:28:47.214Z,101134.41
2022-09-17T13:31:23.127Z,101121.41
2022-09-17T13:34:29.719Z,101123.53
2022-09-17T13:37:00.600Z,101117.38
2022-09-17T13:39:43.320Z,101116.66
2022-09-17T13:42:18.421Z,101109.97
2022-09-17T13:44:52.621Z,101105.44
2022-09-17T13:47:28.353Z,101106.97
2022-09-17T13:50:02.285Z,101102.50
2022-09-17T13:52:39.540Z,101098.75
2022-09-17T13:55:09.709Z,101108.25
2022-09-17T13:57:51.262Z,101108.69
2022-09-17T14:00:56.397Z,101109.75
2022-09-17T14:03:57.062Z,101120.66
2022-09-17T14:06:53.810Z,101119.69
2022-09-17T14:09:51.464Z,101116.66
2022-09-17T14:12:59.998Z,101122.00
2022-09-17T14:16:03.246Z,101111.31
2022-09-17T14:18:58.767Z,101115.38
2022-09-17T14:21:32.944Z,101109.44
2022-09-17T14:24:04.820Z,101118.44
2022-09-17T14:27:16.081Z,101123.09
2022-09-17T14:30:12.233Z,101137.38
2022-09-17T14:32:46.700Z,101127.84
2022-09-17T14:35:23.560Z,101132.31
2022-09-17T14:37:59.458Z,101131.78
2022-09-17T14:40:28.965Z,101137.31
2022-09-17T14:43:00.044Z,101132.13
2022-09-17T14:45:32.870Z,101136.56
2022-09-17T14:48:31.494Z,101136.75
2022-09-17T14:51:30.060Z,101141.22
2022-09-17T14:54:26.567Z,101144.28
2022-09-17T14:57:01.615Z,101135.16
2022-09-17T14:59:45.018Z,101131.97
2022-09-17T15:02:31.122Z,101132.56
2022-09-17T15:05:00.148Z,101123.16
2022-09-17T15:07:30.293Z,101127.13
2022-09-17T15:10:10.186Z,101125.09
2022-09-17T15:12:41.027Z,101133.44
2022-09-17T15:15:20.313Z,101122.56
2022-09-17T15:17:49.587Z,101145.84
2022-09-17T15:20:22.317Z,101156.66
2022-09-17T15:22:57.658Z,101162.47
2022-09-17T15:25:30.948Z,101145.94
2022-09-17T15:28:05.090Z,101160.91
2022-09-17T15:30:34.596Z,101162.66
2022-09-17T15:33:02.905Z,101165.63
2022-09-17T15:35:33.322Z,101162.25
2022-09-17T15:38:22.345Z,101157.94
2022-09-17T15:40:51.821Z,101162.94
2022-09-17T15:43:27.222Z,101172.81
2022-09-17T15:46:00.659Z,101171.22
2022-09-17T15:48:39.444Z,101166.97
2022-09-17T15:51:24.263Z,101166.06
2022-09-17T15:53:54.174Z,101162.06
2022-09-17T15:56:25.359Z,101167.41
2022-09-17T15:59:01.122Z,101158.56
2022-09-17T16:01:57.031Z,101165.88
2022-09-17T16:04:31.600Z,101163.47
2022-09-17T16:07:28.570Z,101169.34
2022-09-17T16:09:59.236Z,101174.53
2022-09-17T16:12:29.809Z,101183.78
2022-09-17T16:15:00.770Z,101188.41
2022-09-17T16:17:43.325Z,101187.66
2022-09-17T16:20:17.748Z,101170.91
2022-09-17T16:22:47.869Z,101175.28
2022-09-17T16:25:17.283Z,101169.03
2022-09-17T16:27:51.378Z,101180.63
2022-09-17T16:30:21.818Z,101191.75
2022-09-17T16:32:52.063Z,101184.16
2022-09-17T16:35:22.680Z,101183.56
2022-09-17T16:37:51.721Z,101171.94
2022-09-17T16:40:21.614Z,101176.75
2022-09-17T16:42:49.887Z,101177.50
2022-09-17T16:45:18.491Z,101171.94
2022-09-17T16:47:46.599Z,101173.25
2022-09-17T16:50:18.650Z,101170.34
2022-09-17T16:52:47.609Z,101177.13
2022-09-17T16:55:18.694Z,101181.31
2022-09-17T16:57:47.680Z,101171.31
2022-09-17T17:00:22.913Z,101176.13
2022-09-17T17:02:56.993Z,101177.28
2022-09-17T17:05:28.235Z,101180.13
2022-09-17T17:07:56.562Z,101188.22
2022-09-17T17:10:26.466Z,101187.50
2022-09-17T17:12:55.590Z,101191.94
2022-09-17T17:15:23.939Z,101193.72
2022-09-17T17:17:52.445Z,101206.06
2022-09-17T17:20:21.091Z,101199.19
2022-09-17T17:22:51.719Z,101194.06
2022-09-17T17:25:20.421Z,101191.50
2022-09-17T17:27:48.572Z,101197.72
2022-09-17T17:30:17.643Z,101193.38
2022-09-17T17:32:50.511Z,101205.69
2022-09-17T17:35:18.993Z,101200.47
2022-09-17T17:37:48.593Z,101196.13
2022-09-17T17:40:18.330Z,101195.28
2022-09-17T17:42:47.517Z,101200.53
2022-09-17T17:45:15.918Z,101197.94
2022-09-17T17:47:43.965Z,101198.81
2022-09-17T17:50:12.094Z,101196.19
2022-09-17T17:52:43.360Z,101192.66
2022-09-17T17:55:11.513Z,101212.81
2022-09-17T17:57:41.328Z,101217.22
2022-09-17T18:00:12.181Z,101221.63
2022-09-17T18:02:40.652Z,101223.44
2022-09-17T18:05:11.630Z,101219.03
2022-09-17T18:07:39.734Z,101219.88
2022-09-17T18:10:08.672Z,101215.50
2022-09-17T18:12:37.054Z,101220.72
2022-09-17T18:15:08.787Z,101223.34
2022-09-17T18:17:36.898Z,101231.22
2022-09-17T18:20:06.350Z,101239.94
2022-09-17T18:22:34.413Z,101246.06
2022-09-17T18:25:03.059Z,101255.69
2022-09-17T18:27:31.096Z,101264.44
2022-09-17T18:29:59.128Z,101277.56
2022-09-17T18:32:29.006Z,101258.28
2022-09-17T18:34:57.836Z,101252.19
2022-09-17T18:37:25.945Z,101245.16
2022-09-17T18:39:58.776Z,101241.69
2022-09-17T18:42:27.119Z,101245.19
2022-09-17T18:44:55.193Z,101255.69
2022-09-17T18:47:23.272Z,101249.59
2022-09-17T18:49:52.668Z,101256.56
2022-09-17T18:52:21.737Z,101248.66
2022-09-17T18:54:50.403Z,101256.44
2022-09-17T18:57:18.531Z,101257.31
2022-09-17T18:59:47.122Z,101259.03
2022-09-17T19:02:15.332Z,101266.03
2022-09-17T19:04:43.406Z,101268.69
2022-09-17T19:07:12.906Z,101257.28
2022-09-17T19:09:41.010Z,101266.94
2022-09-17T19:12:09.461Z,101266.91
2022-09-17T19:14:37.571Z,101261.66
2022-09-17T19:17:05.843Z,101271.22
2022-09-17T19:19:33.908Z,101256.34
2022-09-17T19:22:02.012Z,101272.97
2022-09-17T19:24:31.462Z,101266.81
2022-09-17T19:27:01.444Z,101265.91
2022-09-17T19:29:29.569Z,101272.06
2022-09-17T19:31:57.605Z,101265.09
2022-09-17T19:34:25.807Z,101257.22
2022-09-17T19:36:53.837Z,101263.28
2022-09-17T19:39:21.891Z,101267.66
2022-09-17T19:41:51.325Z,101270.28
2022-09-17T19:44:19.599Z,101271.16
2022-09-17T19:46:49.999Z,101277.31
2022-09-17T19:49:18.588Z,101275.63
2022-09-17T19:51:46.702Z,101273.03
2022-09-17T19:54:15.283Z,101286.16
2022-09-17T19:56:43.339Z,101281.78
2022-09-17T19:59:12.788Z,101280.88
2022-09-17T20:01:43.102Z,101276.53
2022-09-17T20:04:14.051Z,101280.88
2022-09-17T20:06:42.292Z,101281.72
2022-09-17T20:09:11.041Z,101283.47
2022-09-17T20:11:41.312Z,101273.00
2022-09-17T20:14:12.036Z,101270.38
2022-09-17T20:16:41.359Z,101281.72
2022-09-17T20:19:09.711Z,101273.00
2022-09-17T20:21:37.902Z,101279.16
2022-09-17T20:24:07.616Z,101275.69
2022-09-17T20:26:36.406Z,101280.06
2022-09-17T20:29:05.423Z,101275.72
2022-09-17T20:31:35.037Z,101280.09
2022-09-17T20:34:04.161Z,101280.09
2022-09-17T20:36:36.057Z,101282.72
2022-09-17T20:39:16.724Z,101276.56
2022-09-17T20:41:46.250Z,101276.63
2022-09-17T20:44:14.503Z,101268.75
2022-09-17T20:46:44.156Z,101267.88
2022-09-17T20:49:12.244Z,101271.38
2022-09-17T20:51:40.434Z,101268.78
2022-09-17T20:54:08.881Z,101267.03
2022-09-17T20:56:37.171Z,101268.78
2022-09-17T20:59:14.392Z,101267.03
2022-09-17T21:01:45.773Z,101269.66
2022-09-17T21:04:16.800Z,101280.16
2022-09-17T21:06:45.718Z,101294.16
2022-09-17T21:09:16.692Z,101294.22
2022-09-17T21:11:46.654Z,101281.06
2022-09-17T21:14:17.307Z,101282.81
2022-09-17T21:16:49.054Z,101278.44
2022-09-17T21:19:17.216Z,101281.94
2022-09-17T21:21:45.490Z,101282.78
2022-09-17T21:24:13.666Z,101279.19
2022-09-17T21:26:41.802Z,101273.00
2022-09-17T21:29:10.071Z,101290.50
2022-09-17T21:31:39.683Z,101286.09
2022-09-17T21:34:12.557Z,101290.41
2022-09-17T21:36:44.225Z,101281.63
2022-09-17T21:39:15.264Z,101281.56
2022-09-17T21:41:43.908Z,101281.53
2022-09-17T21:44:13.161Z,101281.47
2022-09-17T21:46:42.795Z,101283.19
2022-09-17T21:49:13.844Z,101284.91
2022-09-17T21:51:43.900Z,101290.13
2022-09-17T21:54:16.952Z,101295.34
2022-09-17T21:56:46.351Z,101289.22
2022-09-17T21:59:16.791Z,101305.81
2022-09-17T22:01:48.060Z,101312.78
2022-09-17T22:04:19.416Z,101304.03
2022-09-17T22:07:12.922Z,101306.66
2022-09-17T22:09:41.020Z,101297.88
2022-09-17T22:12:11.215Z,101308.34
2022-09-17T22:14:39.271Z,101306.56
2022-09-17T22:17:07.374Z,101304.75
2022-09-17T22:19:36.875Z,101293.38
2022-09-17T22:22:04.962Z,101300.34
2022-09-17T22:24:33.029Z,101298.63
2022-09-17T22:27:01.104Z,101300.34
2022-09-17T22:29:31.536Z,101294.19
2022-09-17T22:31:59.689Z,101300.34
2022-09-17T22:34:27.781Z,101289.91
2022-09-17T22:36:57.785Z,101289.94
2022-09-17T22:39:25.891Z,101297.88
2022-09-17T22:41:54.676Z,101301.41
2022-09-17T22:44:22.694Z,101303.16
2022-09-17T22:46:52.580Z,101295.25
2022-09-17T22:49:21.349Z,101292.59
2022-09-17T22:51:49.572Z,101285.72
2022-09-17T22:54:20.046Z,101286.63
2022-09-17T22:56:49.103Z,101290.13
2022-09-17T22:59:18.065Z,101284.03
2022-09-17T23:01:46.471Z,101271.81
2022-09-17T23:04:14.591Z,101270.91
2022-09-17T23:06:43.052Z,101274.38
2022-09-17T23:09:13.119Z,101276.06
2022-09-17T23:11:43.201Z,101265.56
2022-09-17T23:14:13.927Z,101257.63
2022-09-17T23:16:44.331Z,101261.97
2022-09-17T23:19:13.118Z,101267.13
2022-09-17T23:21:41.924Z,101262.72
2022-09-17T23:24:11.443Z,101267.00
2022-09-17T23:26:39.532Z,101263.50
2022-09-17T23:29:08.962Z,101266.09
2022-09-17T23:31:37.097Z,101269.59
2022-09-17T23:34:07.348Z,101280.06
2022-09-17T23:36:38.737Z,101272.19
2022-09-17T23:39:09.137Z,101277.44
2022-09-17T23:41:39.926Z,101277.44
2022-09-17T23:44:14.890Z,101279.25
2022-09-17T23:46:44.678Z,101276.66
2022-09-17T23:49:15.048Z,101270.63
2022-09-17T23:51:43.140Z,101257.59
2022-09-17T23:54:11.677Z,101271.56
2022-09-17T23:56:39.888Z,101270.66
2022-09-17T23:59:10.740Z,101264.53
